Time;durP1;ratioP1;P1;durP2;ratioP2;P2;SDS_P1;SDS_P2;PMS_P1;PMS_P2;Temp;Humidity;BMP_temperature;BMP_pressure;BME280_temperature;BME280_humidity;BME280_pressure;Samples;Min_cycle;Max_cycle;Signal;HPM_P1;HPM_P2
2023/05/22 00:01:55;;;;;;;40.70;36.67;;;16.20;99.90;;;;;;4959328;28;20691;-76
2023/05/22 00:04:22;;;;;;;40.63;36.50;;;16.10;99.90;;;;;;4981630;28;20034;-76
2023/05/22 00:06:49;;;;;;;41.55;37.38;;;16.00;99.90;;;;;;4985040;28;20039;-76
2023/05/22 00:09:16;;;;;;;40.22;35.95;;;16.00;99.90;;;;;;4963639;28;20632;-76
2023/05/22 00:11:42;;;;;;;39.33;35.35;;;16.00;99.90;;;;;;4960472;28;20051;-76
2023/05/22 00:14:09;;;;;;;40.00;35.97;;;15.90;99.90;;;;;;4975452;28;20504;-77
2023/05/22 00:16:36;;;;;;;39.13;35.33;;;16.00;99.90;;;;;;4986066;28;20050;-76
2023/05/22 00:19:05;;;;;;;39.10;35.38;;;15.90;99.90;;;;;;4955065;28;20725;-76
2023/05/22 00:21:33;;;;;;;44.78;37.60;;;15.90;99.90;;;;;;4979766;28;20038;-76
2023/05/22 00:24:00;;;;;;;39.25;35.55;;;16.00;99.90;;;;;;4962016;28;20109;-76
2023/05/22 00:26:27;;;;;;;38.80;35.10;;;16.10;99.90;;;;;;4978065;28;20058;-77
2023/05/22 00:28:54;;;;;;;39.35;35.33;;;16.00;99.90;;;;;;4964416;28;20158;-77
2023/05/22 00:31:21;;;;;;;39.42;35.67;;;16.00;99.90;;;;;;4976841;28;20042;-76
2023/05/22 00:33:48;;;;;;;40.08;36.22;;;16.00;99.90;;;;;;4964928;28;20041;-76
2023/05/22 00:36:15;;;;;;;39.85;35.83;;;15.90;99.90;;;;;;4975194;28;20042;-77
2023/05/22 00:38:41;;;;;;;38.95;35.40;;;16.00;99.90;;;;;;4980866;28;20046;-76
2023/05/22 00:41:08;;;;;;;38.20;34.60;;;16.10;99.90;;;;;;4954946;28;20070;-77
2023/05/22 00:43:38;;;;;;;41.28;37.42;;;16.10;99.90;;;;;;4977693;28;20047;-75
2023/05/22 00:46:06;;;;;;;39.50;35.30;;;16.20;99.90;;;;;;4967826;28;20070;-76
2023/05/22 00:48:33;;;;;;;40.75;36.63;;;16.20;99.90;;;;;;4984655;28;20399;-76
2023/05/22 00:51:00;;;;;;;40.08;36.08;;;16.10;99.90;;;;;;4961468;28;20039;-76
2023/05/22 00:53:28;;;;;;;40.15;36.35;;;16.10;99.90;;;;;;4961296;28;20601;-76
2023/05/22 00:55:57;;;;;;;38.88;35.35;;;16.10;99.90;;;;;;4954092;28;20047;-76
2023/05/22 00:58:26;;;;;;;40.42;36.53;;;16.20;99.90;;;;;;4976672;28;20074;-77
2023/05/22 01:00:54;;;;;;;39.00;35.28;;;16.20;99.90;;;;;;4975239;28;20194;-76
2023/05/22 01:03:24;;;;;;;39.08;35.33;;;16.30;99.90;;;;;;4974455;28;20050;-76
2023/05/22 01:05:53;;;;;;;37.30;33.95;;;16.20;99.90;;;;;;4967689;28;20046;-77
2023/05/22 01:08:20;;;;;;;39.45;35.80;;;16.20;99.90;;;;;;4975772;28;20104;-76
2023/05/22 01:10:53;;;;;;;39.28;35.58;;;16.20;99.90;;;;;;4965074;28;20073;-77
2023/05/22 01:13:32;;;;;;;40.08;36.50;;;16.30;99.90;;;;;;4975244;28;20702;-76
2023/05/22 01:16:18;;;;;;;40.03;36.28;;;16.20;99.90;;;;;;4957569;28;20046;-77
2023/05/22 01:18:59;;;;;;;39.58;35.88;;;16.30;99.90;;;;;;4960919;28;20057;-77
2023/05/22 01:21:45;;;;;;;37.15;33.45;;;16.30;99.90;;;;;;4980866;28;20042;-76
2023/05/22 01:24:24;;;;;;;38.47;34.58;;;16.10;99.90;;;;;;4970442;28;20053;-77
2023/05/22 01:27:28;;;;;;;38.63;35.13;;;16.00;99.90;;;;;;4971293;28;20050;-76
2023/05/22 01:30:12;;;;;;;38.00;34.42;;;16.00;99.90;;;;;;4961185;28;20124;-77
2023/05/22 01:32:42;;;;;;;37.78;34.38;;;16.10;99.90;;;;;;4974834;28;20142;-76
2023/05/22 01:35:10;;;;;;;39.50;35.85;;;16.10;99.90;;;;;;4955951;28;20092;-76
2023/05/22 01:37:38;;;;;;;38.90;35.25;;;16.10;99.90;;;;;;4980545;28;20120;-76
2023/05/22 01:40:06;;;;;;;38.05;34.47;;;16.10;99.90;;;;;;4974664;28;20042;-77
2023/05/22 01:42:34;;;;;;;39.85;35.88;;;16.10;99.90;;;;;;4977183;28;20607;-76
2023/05/22 01:45:00;;;;;;;38.60;35.05;;;16.20;99.90;;;;;;4960572;28;20089;-76
2023/05/22 01:47:27;;;;;;;39.00;35.13;;;16.20;99.90;;;;;;4969373;28;20047;-76
2023/05/22 01:49:54;;;;;;;38.80;35.20;;;16.30;99.90;;;;;;4960027;28;20496;-77
2023/05/22 01:52:30;;;;;;;36.20;32.92;;;16.40;99.90;;;;;;4977870;28;20100;-77
2023/05/22 01:55:08;;;;;;;36.75;33.55;;;16.40;99.90;;;;;;4970848;28;20109;-76
2023/05/22 01:57:46;;;;;;;36.78;33.38;;;16.40;99.90;;;;;;4956469;28;20058;-77
2023/05/22 02:00:15;;;;;;;37.42;33.83;;;16.40;99.90;;;;;;4974806;28;20061;-77
2023/05/22 02:02:46;;;;;;;37.13;33.65;;;16.40;99.90;;;;;;4976095;28;20056;-77
2023/05/22 02:05:17;;;;;;;37.60;34.40;;;16.40;99.90;;;;;;4968579;28;20043;-77
2023/05/22 02:07:46;;;;;;;37.92;34.53;;;16.50;99.90;;;;;;4960854;28;20049;-76
2023/05/22 02:10:14;;;;;;;36.92;33.58;;;16.70;99.90;;;;;;4975782;28;20054;-77
2023/05/22 02:12:41;;;;;;;35.15;31.95;;;16.70;99.90;;;;;;4969019;28;20051;-77
2023/05/22 02:15:10;;;;;;;38.15;34.53;;;16.70;99.90;;;;;;4973282;28;20623;-76
2023/05/22 02:17:41;;;;;;;36.97;33.65;;;16.70;99.90;;;;;;4967301;28;20132;-76
2023/05/22 02:20:14;;;;;;;37.30;33.95;;;16.70;99.90;;;;;;4969850;28;20050;-76
2023/05/22 02:22:44;;;;;;;39.57;35.93;;;16.60;99.90;;;;;;4983873;28;20133;-77
2023/05/22 02:25:15;;;;;;;37.22;34.13;;;16.60;99.90;;;;;;4956062;28;20684;-77
2023/05/22 02:27:44;;;;;;;38.22;34.42;;;16.60;99.90;;;;;;4981108;28;20046;-77
2023/05/22 02:30:12;;;;;;;37.63;34.22;;;16.60;99.90;;;;;;4958308;28;20047;-77
2023/05/22 02:32:41;;;;;;;38.78;35.35;;;16.60;99.90;;;;;;4972791;28;20066;-77
2023/05/22 02:35:08;;;;;;;40.38;36.65;;;16.40;99.90;;;;;;4971146;28;21751;-77
2023/05/22 02:37:35;;;;;;;39.63;35.88;;;16.50;99.90;;;;;;4974312;28;20043;-76
2023/05/22 02:40:05;;;;;;;38.75;35.22;;;16.40;99.90;;;;;;4973487;28;20129;-77
2023/05/22 02:42:33;;;;;;;38.17;34.60;;;16.40;99.90;;;;;;4967999;28;20042;-76
2023/05/22 02:45:00;;;;;;;38.05;34.55;;;16.40;99.90;;;;;;4959440;28;20049;-76
2023/05/22 02:47:27;;;;;;;38.33;34.85;;;16.30;99.90;;;;;;4972597;28;20064;-77
2023/05/22 02:49:56;;;;;;;37.85;34.42;;;16.40;99.90;;;;;;4954756;28;20045;-77
2023/05/22 02:52:23;;;;;;;36.00;32.80;;;16.20;99.90;;;;;;4976967;28;20137;-76
2023/05/22 02:54:50;;;;;;;36.60;33.40;;;16.10;99.90;;;;;;4970591;28;20593;-77
2023/05/22 02:57:18;;;;;;;37.47;34.00;;;16.30;99.90;;;;;;4961552;28;20485;-77
2023/05/22 02:59:44;;;;;;;34.65;31.73;;;16.50;99.90;;;;;;4970528;28;20046;-76
2023/05/22 03:02:14;;;;;;;35.83;32.78;;;16.50;99.90;;;;;;4959573;28;20046;-77
2023/05/22 03:04:40;;;;;;;36.15;32.95;;;16.70;99.90;;;;;;4979593;28;20094;-76
2023/05/22 03:07:08;;;;;;;36.30;32.90;;;16.80;99.90;;;;;;4975308;28;20039;-77
2023/05/22 03:09:35;;;;;;;36.47;33.00;;;16.90;99.90;;;;;;4958519;28;20042;-77
2023/05/22 03:12:02;;;;;;;35.97;32.78;;;17.00;99.90;;;;;;4961030;28;20034;-77
2023/05/22 03:14:29;;;;;;;36.60;33.40;;;17.10;99.90;;;;;;4976453;28;20574;-77
2023/05/22 03:16:57;;;;;;;36.17;32.95;;;17.10;99.90;;;;;;4973367;28;20522;-77
2023/05/22 03:19:28;;;;;;;36.65;33.40;;;17.00;99.90;;;;;;4967767;28;20046;-77
2023/05/22 03:21:55;;;;;;;34.47;31.48;;;17.00;99.90;;;;;;4972742;28;20053;-76
2023/05/22 03:24:22;;;;;;;39.22;36.05;;;17.00;99.90;;;;;;4975878;28;20045;-76
2023/05/22 03:26:48;;;;;;;38.25;34.38;;;17.20;99.90;;;;;;4960900;28;20065;-77
2023/05/22 03:29:22;;;;;;;36.50;33.20;;;17.10;99.90;;;;;;4964152;28;20041;-77
2023/05/22 03:31:49;;;;;;;37.55;34.08;;;17.10;99.90;;;;;;4972458;28;20042;-77
2023/05/22 03:34:16;;;;;;;35.83;32.53;;;17.10;99.90;;;;;;4977840;28;20516;-77
2023/05/22 03:36:45;;;;;;;36.28;33.22;;;17.10;99.90;;;;;;4959612;28;20130;-76
2023/05/22 03:39:14;;;;;;;35.05;32.13;;;17.10;99.90;;;;;;4958466;28;20685;-77
2023/05/22 03:41:50;;;;;;;36.55;33.00;;;17.10;99.90;;;;;;4960879;28;20126;-76
2023/05/22 03:44:17;;;;;;;36.80;33.67;;;17.10;99.90;;;;;;4957326;28;20658;-77
2023/05/22 03:46:45;;;;;;;35.42;32.28;;;17.10;99.90;;;;;;4979663;28;20046;-76
2023/05/22 03:49:11;;;;;;;36.70;33.40;;;17.20;99.90;;;;;;4976864;28;20079;-77
2023/05/22 03:51:38;;;;;;;36.95;33.63;;;17.10;99.90;;;;;;4961028;28;20043;-76
2023/05/22 03:54:05;;;;;;;34.22;31.23;;;17.10;99.90;;;;;;4958855;28;20054;-76
2023/05/22 03:56:31;;;;;;;40.70;37.45;;;17.10;99.90;;;;;;4956979;28;20046;-76
2023/05/22 03:58:58;;;;;;;39.00;35.72;;;17.10;99.90;;;;;;4960496;28;20042;-77
2023/05/22 04:01:26;;;;;;;40.42;37.13;;;17.10;99.90;;;;;;4967974;28;20042;-76
2023/05/22 04:03:52;;;;;;;41.45;37.90;;;17.20;99.90;;;;;;4956507;28;20041;-77
2023/05/22 04:06:22;;;;;;;41.08;37.65;;;17.20;99.90;;;;;;4973523;28;20038;-77
2023/05/22 04:08:49;;;;;;;42.28;38.80;;;17.20;99.90;;;;;;4980834;28;20118;-76
2023/05/22 04:11:15;;;;;;;40.85;37.45;;;17.10;99.90;;;;;;4957877;28;20724;-77
2023/05/22 04:13:43;;;;;;;41.67;38.05;;;17.10;99.90;;;;;;4977004;28;20100;-76
2023/05/22 04:16:10;;;;;;;42.13;38.53;;;17.20;99.90;;;;;;4976049;28;20637;-76
2023/05/22 04:18:37;;;;;;;40.92;37.60;;;17.10;99.90;;;;;;4957446;28;20042;-77
2023/05/22 04:21:06;;;;;;;38.83;35.38;;;17.10;99.90;;;;;;4970855;28;20105;-76
2023/05/22 04:23:33;;;;;;;39.10;35.75;;;17.10;99.90;;;;;;4978940;28;20425;-76
2023/05/22 04:26:03;;;;;;;39.05;35.92;;;17.10;99.90;;;;;;4960662;28;20038;-77
2023/05/22 04:28:29;;;;;;;40.33;36.78;;;17.10;99.90;;;;;;4973803;28;20112;-76
2023/05/22 04:30:56;;;;;;;39.22;35.97;;;17.20;99.90;;;;;;4977468;28;20050;-76
2023/05/22 04:33:23;;;;;;;41.00;37.70;;;17.20;99.90;;;;;;4971196;28;20104;-76
2023/05/22 04:35:50;;;;;;;39.40;36.25;;;17.30;99.90;;;;;;4971780;28;20054;-76
2023/05/22 04:38:17;;;;;;;40.00;36.80;;;17.20;99.90;;;;;;4972991;28;20054;-76
2023/05/22 04:40:44;;;;;;;39.33;36.28;;;17.20;99.90;;;;;;4971277;28;20161;-77
2023/05/22 04:43:12;;;;;;;40.67;37.38;;;17.20;99.90;;;;;;4973017;28;20042;-76
2023/05/22 04:45:41;;;;;;;38.75;35.78;;;17.30;99.90;;;;;;4975733;28;20038;-77
2023/05/22 04:48:07;;;;;;;40.13;36.55;;;17.30;99.90;;;;;;4977073;28;20046;-76
2023/05/22 04:50:37;;;;;;;39.15;35.92;;;17.30;99.90;;;;;;4977034;28;20046;-76
2023/05/22 04:53:04;;;;;;;37.95;34.78;;;17.40;99.90;;;;;;4976003;28;20054;-76
2023/05/22 04:55:34;;;;;;;38.97;35.63;;;17.40;99.90;;;;;;4973612;28;20042;-77
2023/05/22 04:58:01;;;;;;;38.58;35.42;;;17.40;99.90;;;;;;4973398;28;20671;-76
2023/05/22 05:00:28;;;;;;;39.08;35.83;;;17.40;99.90;;;;;;4968630;28;20043;-76
2023/05/22 05:02:56;;;;;;;40.25;36.95;;;17.50;99.90;;;;;;4958200;28;20050;-77
2023/05/22 05:05:23;;;;;;;40.20;36.90;;;17.50;99.90;;;;;;4960113;28;20101;-76
2023/05/22 05:07:52;;;;;;;38.85;35.65;;;17.50;99.90;;;;;;4968806;28;20101;-76
2023/05/22 05:10:19;;;;;;;39.65;36.13;;;17.40;99.90;;;;;;4971481;28;20054;-76
2023/05/22 05:12:46;;;;;;;39.95;36.75;;;17.40;99.90;;;;;;4959292;28;20116;-77
2023/05/22 05:15:13;;;;;;;40.35;37.08;;;17.40;99.90;;;;;;4976626;28;20504;-76
2023/05/22 05:17:39;;;;;;;38.35;35.38;;;17.40;99.90;;;;;;4973501;28;20484;-76
2023/05/22 05:20:07;;;;;;;41.08;37.63;;;17.50;99.90;;;;;;4967970;28;20117;-76
2023/05/22 05:22:34;;;;;;;38.22;35.20;;;17.60;99.90;;;;;;4972847;28;20039;-76
2023/05/22 05:25:04;;;;;;;39.63;36.42;;;17.70;99.90;;;;;;4978314;28;20539;-76
2023/05/22 05:27:31;;;;;;;38.92;35.80;;;17.80;99.90;;;;;;4975457;28;20247;-77
2023/05/22 05:29:58;;;;;;;39.28;36.28;;;17.90;99.90;;;;;;4960130;28;20100;-77
2023/05/22 05:32:31;;;;;;;39.58;36.38;;;18.10;99.90;;;;;;4959216;28;20132;-77
2023/05/22 05:35:07;;;;;;;39.92;36.83;;;18.20;99.90;;;;;;4975634;28;20047;-76
2023/05/22 05:37:50;;;;;;;40.53;37.22;;;18.30;99.90;;;;;;4970313;28;20428;-76
2023/05/22 05:40:17;;;;;;;38.58;35.58;;;18.20;99.90;;;;;;4970099;28;21185;-76
2023/05/22 05:42:48;;;;;;;39.53;36.58;;;18.20;99.90;;;;;;4963047;28;20034;-76
2023/05/22 05:45:17;;;;;;;40.03;36.92;;;18.30;99.90;;;;;;4976102;28;20646;-75
2023/05/22 05:47:44;;;;;;;39.28;36.08;;;18.30;99.90;;;;;;4978625;28;20047;-76
2023/05/22 05:50:14;;;;;;;39.58;36.08;;;18.30;99.90;;;;;;4963543;28;20039;-76
2023/05/22 05:52:41;;;;;;;39.88;36.70;;;18.50;99.90;;;;;;4977970;28;20046;-76
2023/05/22 05:55:13;;;;;;;39.25;35.80;;;18.50;99.90;;;;;;4970211;28;20130;-77
2023/05/22 05:57:40;;;;;;;38.60;35.50;;;18.70;99.90;;;;;;4964808;28;20066;-76
2023/05/22 06:00:11;;;;;;;39.22;35.92;;;18.90;99.90;;;;;;4971259;28;20047;-76
2023/05/22 06:02:41;;;;;;;38.70;35.42;;;19.10;99.90;;;;;;4969623;28;20089;-75
2023/05/22 06:05:22;;;;;;;39.05;35.85;;;19.00;99.90;;;;;;4972958;28;20046;-75
2023/05/22 06:07:57;;;;;;;38.85;35.78;;;19.00;99.90;;;;;;4972406;28;20035;-76
2023/05/22 06:10:24;;;;;;;39.38;36.30;;;18.80;99.90;;;;;;4972577;28;20129;-76
2023/05/22 06:12:57;;;;;;;39.65;36.60;;;18.90;99.90;;;;;;4957316;28;20039;-76
2023/05/22 06:15:24;;;;;;;39.58;36.50;;;19.00;99.90;;;;;;4973690;28;20525;-76
2023/05/22 06:17:51;;;;;;;40.05;36.83;;;19.00;99.90;;;;;;4968074;28;20113;-76
2023/05/22 06:20:18;;;;;;;38.63;35.60;;;18.80;99.90;;;;;;4958523;28;20406;-77
2023/05/22 06:22:46;;;;;;;39.85;36.53;;;18.90;99.90;;;;;;4976507;28;20380;-77
2023/05/22 06:25:12;;;;;;;37.55;34.65;;;18.90;99.90;;;;;;4986261;28;20047;-76
2023/05/22 06:27:39;;;;;;;38.60;35.47;;;19.00;99.90;;;;;;4959846;28;20062;-76
2023/05/22 06:30:07;;;;;;;39.70;36.30;;;19.30;99.90;;;;;;4972109;28;20051;-77
2023/05/22 06:32:37;;;;;;;37.42;34.53;;;19.70;99.90;;;;;;4964525;28;20640;-76
2023/05/22 06:35:06;;;;;;;41.50;38.33;;;19.90;99.90;;;;;;4966873;28;20059;-75
2023/05/22 06:37:34;;;;;;;40.70;37.60;;;19.60;99.90;;;;;;4957517;28;20752;-75
2023/05/22 06:40:02;;;;;;;39.60;36.70;;;19.80;99.90;;;;;;4982774;28;20098;-77
2023/05/22 06:42:39;;;;;;;40.25;37.17;;;20.00;99.90;;;;;;4975698;28;20049;-76
2023/05/22 06:45:24;;;;;;;42.85;39.30;;;20.10;99.90;;;;;;4973485;28;20046;-76
2023/05/22 06:48:11;;;;;;;42.50;39.28;;;19.70;99.90;;;;;;4962084;28;20436;-75
2023/05/22 06:50:51;;;;;;;40.85;37.85;;;19.70;99.90;;;;;;4968219;28;20046;-76
2023/05/22 06:53:18;;;;;;;41.78;38.42;;;20.00;99.90;;;;;;4959449;28;20105;-76
2023/05/22 06:55:46;;;;;;;40.25;37.25;;;20.20;99.90;;;;;;4970503;28;20037;-78
2023/05/22 06:58:21;;;;;;;40.65;37.55;;;20.30;99.90;;;;;;4977728;28;20053;-77
2023/05/22 07:00:49;;;;;;;41.25;38.25;;;20.40;99.90;;;;;;4962681;28;20042;-75
2023/05/22 07:03:21;;;;;;;40.85;37.75;;;20.40;99.90;;;;;;4970541;28;21229;-77
2023/05/22 07:06:14;;;;;;;41.28;38.05;;;20.60;99.90;;;;;;4971533;28;20039;-76
2023/05/22 07:08:42;;;;;;;41.72;38.67;;;20.70;99.90;;;;;;4976334;28;20054;-76
2023/05/22 07:11:08;;;;;;;41.08;37.88;;;20.20;99.90;;;;;;4977960;28;20046;-75
2023/05/22 07:13:35;;;;;;;41.00;38.03;;;20.10;99.90;;;;;;4971613;28;20042;-76
2023/05/22 07:16:05;;;;;;;40.97;37.97;;;20.40;99.90;;;;;;4964636;28;20113;-76
2023/05/22 07:18:33;;;;;;;42.10;38.80;;;20.30;99.90;;;;;;4973243;28;20522;-76
2023/05/22 07:21:00;;;;;;;42.03;38.70;;;20.10;99.90;;;;;;4959205;28;20047;-76
2023/05/22 07:23:27;;;;;;;41.60;38.40;;;20.20;99.90;;;;;;4976178;28;20452;-76
2023/05/22 07:25:54;;;;;;;40.80;37.80;;;20.10;99.90;;;;;;4983137;28;20046;-75
2023/05/22 07:28:25;;;;;;;43.70;40.22;;;20.10;99.90;;;;;;4972696;28;20130;-76
2023/05/22 07:30:59;;;;;;;;;;;20.40;99.90;;;;;;4978441;28;20040;-76
2023/05/22 07:33:26;;;;;;;41.53;38.45;;;20.60;99.90;;;;;;4955133;28;19929;-77
2023/05/22 07:35:54;;;;;;;41.13;37.95;;;20.50;99.90;;;;;;4958354;28;20129;-75
2023/05/22 07:38:21;;;;;;;41.13;37.83;;;20.50;99.90;;;;;;4971564;28;20679;-76
2023/05/22 07:40:55;;;;;;;40.72;37.75;;;20.50;99.90;;;;;;4969267;28;20118;-76
2023/05/22 07:43:23;;;;;;;41.65;38.33;;;20.50;99.90;;;;;;4969026;28;20042;-77
2023/05/22 07:45:52;;;;;;;40.70;37.40;;;20.60;99.90;;;;;;4977053;28;20105;-76
2023/05/22 07:48:22;;;;;;;39.92;37.13;;;20.70;99.90;;;;;;4975965;28;20034;-76
2023/05/22 07:50:50;;;;;;;41.70;38.08;;;20.80;99.90;;;;;;4974461;28;20321;-76
2023/05/22 07:53:17;;;;;;;42.33;38.67;;;20.70;99.90;;;;;;4960724;28;20051;-75
2023/05/22 07:55:48;;;;;;;41.80;38.38;;;20.50;99.90;;;;;;4963831;28;20218;-76
2023/05/22 07:58:14;;;;;;;42.38;39.20;;;20.50;99.90;;;;;;4968697;28;20232;-76
2023/05/22 08:00:43;;;;;;;42.53;38.90;;;20.70;99.90;;;;;;4979142;28;20056;-76
2023/05/22 08:03:10;;;;;;;41.88;38.60;;;20.50;99.90;;;;;;4976499;28;20088;-76
2023/05/22 08:05:38;;;;;;;41.17;37.97;;;20.40;99.90;;;;;;4975896;28;20101;-76
2023/05/22 08:08:05;;;;;;;41.03;38.05;;;20.50;99.90;;;;;;4980601;28;20066;-76
2023/05/22 08:10:31;;;;;;;41.17;37.83;;;20.50;99.90;;;;;;4978469;28;20046;-76
2023/05/22 08:13:21;;;;;;;43.60;40.10;;;20.70;99.90;;;;;;4980403;28;20053;-76
2023/05/22 08:15:48;;;;;;;40.40;37.33;;;20.50;99.90;;;;;;4976794;28;20046;-75
2023/05/22 08:18:15;;;;;;;40.92;37.80;;;20.60;99.90;;;;;;4980595;28;20109;-76
2023/05/22 08:20:41;;;;;;;41.97;38.88;;;21.00;99.90;;;;;;4965612;28;20105;-75
2023/05/22 08:23:08;;;;;;;43.38;40.10;;;21.30;99.90;;;;;;4974005;28;20057;-76
2023/05/22 08:25:35;;;;;;;43.97;40.55;;;21.30;99.90;;;;;;4977912;28;20273;-75
2023/05/22 08:28:03;;;;;;;43.83;40.22;;;21.60;99.90;;;;;;4980086;28;20291;-76
2023/05/22 08:30:29;;;;;;;43.67;40.42;;;22.10;99.90;;;;;;4971737;28;20182;-76
2023/05/22 08:32:56;;;;;;;42.45;39.25;;;22.10;99.90;;;;;;4974687;28;20093;-75
2023/05/22 08:35:23;;;;;;;42.92;39.67;;;22.00;99.90;;;;;;4975278;28;20050;-75
2023/05/22 08:37:50;;;;;;;41.63;38.38;;;22.20;99.90;;;;;;4972557;28;20031;-76
2023/05/22 08:40:19;;;;;;;40.78;37.55;;;22.20;99.90;;;;;;4974508;28;20117;-75
2023/05/22 08:42:46;;;;;;;41.58;38.67;;;22.30;99.90;;;;;;4974541;28;20050;-77
2023/05/22 08:45:15;;;;;;;41.55;38.60;;;22.60;99.90;;;;;;4978801;28;20049;-76
2023/05/22 08:47:43;;;;;;;40.72;37.83;;;22.70;99.90;;;;;;4969819;28;20042;-76
2023/05/22 08:50:11;;;;;;;41.15;38.03;;;22.80;99.90;;;;;;4959936;28;20041;-76
2023/05/22 08:52:50;;;;;;;43.83;40.70;;;22.60;99.90;;;;;;4975183;28;20578;-75
2023/05/22 08:55:18;;;;;;;42.95;39.83;;;22.80;99.90;;;;;;4974712;28;20526;-77
2023/05/22 08:57:45;;;;;;;41.33;38.40;;;22.70;99.90;;;;;;4969759;28;20497;-76
2023/05/22 09:00:13;;;;;;;43.17;39.47;;;22.90;99.90;;;;;;4969394;28;20047;-75
2023/05/22 09:02:40;;;;;;;43.53;40.33;;;23.30;99.90;;;;;;4978231;28;20050;-75
2023/05/22 09:05:08;;;;;;;41.38;38.28;;;23.40;99.90;;;;;;4966036;28;20146;-77
2023/05/22 09:07:36;;;;;;;45.45;41.95;;;23.30;99.90;;;;;;4970051;28;20062;-75
2023/05/22 09:10:05;;;;;;;43.35;40.35;;;23.30;99.90;;;;;;4978686;28;20046;-75
2023/05/22 09:12:32;;;;;;;42.70;39.60;;;23.20;99.90;;;;;;4975352;28;20098;-76
2023/05/22 09:15:09;;;;;;;42.92;39.85;;;23.60;99.90;;;;;;4957819;28;20073;-76
2023/05/22 09:17:39;;;;;;;46.28;42.50;;;24.10;99.90;;;;;;4974822;28;20069;-76
2023/05/22 09:20:09;;;;;;;44.55;41.50;;;24.30;99.90;;;;;;4978388;28;20077;-76
2023/05/22 09:22:37;;;;;;;45.88;42.78;;;24.30;99.90;;;;;;4980951;28;20058;-76
2023/05/22 09:25:05;;;;;;;47.22;43.80;;;24.40;99.90;;;;;;4973647;28;20038;-76
2023/05/22 09:27:33;;;;;;;46.20;43.05;;;24.50;99.90;;;;;;4970274;28;20043;-77
2023/05/22 09:29:59;;;;;;;48.28;44.78;;;24.80;99.90;;;;;;4973808;28;20050;-75
2023/05/22 09:32:30;;;;;;;49.25;45.97;;;25.00;99.90;;;;;;4971705;28;20632;-75
2023/05/22 09:35:04;;;;;;;47.47;44.20;;;25.10;99.90;;;;;;4969396;28;20554;-75
2023/05/22 09:37:35;;;;;;;45.45;42.30;;;25.50;99.90;;;;;;4975748;28;20050;-76
2023/05/22 09:40:07;;;;;;;45.58;42.45;;;25.50;99.90;;;;;;4972131;28;20054;-76
2023/05/22 09:42:36;;;;;;;45.60;42.10;;;25.50;99.90;;;;;;4975689;28;20092;-76
2023/05/22 09:45:10;;;;;;;45.47;42.17;;;25.30;99.90;;;;;;4975279;28;20049;-76
2023/05/22 09:47:44;;;;;;;44.08;41.03;;;25.10;99.90;;;;;;4960287;28;20039;-76
2023/05/22 09:50:11;;;;;;;;;;;24.80;99.90;;;;;;4975258;28;20122;-76
2023/05/22 09:52:38;;;;;;;42.42;39.53;;;24.70;99.90;;;;;;4974576;28;20246;-76
2023/05/22 09:55:07;;;;;;;41.55;38.53;;;24.60;99.90;;;;;;4977340;28;20605;-76
2023/05/22 09:57:47;;;;;;;42.35;39.38;;;24.60;99.90;;;;;;4967661;28;20051;-76
2023/05/22 10:00:16;;;;;;;43.65;40.75;;;24.70;99.90;;;;;;4975461;28;20046;-75
2023/05/22 10:02:57;;;;;;;46.67;43.47;;;24.80;99.90;;;;;;4962714;28;20070;-76
2023/05/22 10:05:32;;;;;;;50.03;46.53;;;24.90;99.90;;;;;;4982368;28;20543;-76
2023/05/22 10:08:12;;;;;;;49.35;45.88;;;25.20;99.90;;;;;;4968677;28;20652;-76
2023/05/22 10:10:42;;;;;;;48.88;45.50;;;25.40;99.90;;;;;;4960624;28;20038;-76
2023/05/22 10:13:10;;;;;;;48.53;45.53;;;25.70;99.90;;;;;;4979926;28;20065;-75
2023/05/22 10:15:39;;;;;;;50.17;47.08;;;26.00;99.90;;;;;;4972778;28;20104;-76
2023/05/22 10:18:06;;;;;;;50.53;47.22;;;26.10;99.90;;;;;;4976975;28;20038;-75
2023/05/22 10:20:34;;;;;;;56.40;52.70;;;26.20;99.90;;;;;;4957336;28;20050;-76
2023/05/22 10:23:02;;;;;;;56.60;53.10;;;26.40;99.90;;;;;;4976015;28;20068;-75
2023/05/22 10:25:29;;;;;;;57.78;54.03;;;26.30;99.90;;;;;;4980201;28;20034;-75
2023/05/22 10:27:57;;;;;;;51.55;48.45;;;26.40;99.90;;;;;;4974275;28;20042;-77
2023/05/22 10:30:33;;;;;;;51.97;48.78;;;26.50;99.90;;;;;;4975358;28;20057;-75
2023/05/22 10:33:21;;;;;;;52.63;49.30;;;26.60;99.90;;;;;;4974518;28;20196;-76
2023/05/22 10:35:57;;;;;;;52.97;49.55;;;26.60;99.90;;;;;;4973831;28;20039;-75
2023/05/22 10:38:34;;;;;;;51.60;48.20;;;26.50;99.90;;;;;;4976992;28;20047;-73
2023/05/22 10:41:05;;;;;;;50.42;47.13;;;26.20;99.90;;;;;;4979721;28;20034;-75
2023/05/22 10:43:37;;;;;;;50.63;47.42;;;26.00;99.90;;;;;;4977566;28;20601;-76
2023/05/22 10:46:05;;;;;;;51.10;47.65;;;25.70;99.90;;;;;;4960235;28;20054;-74
2023/05/22 10:48:44;;;;;;;51.92;48.25;;;25.40;99.90;;;;;;4971410;28;20393;-76
2023/05/22 10:51:21;;;;;;;51.53;48.03;;;25.30;99.90;;;;;;4973113;28;20138;-76
2023/05/22 10:53:59;;;;;;;48.33;44.72;;;25.00;99.90;;;;;;4959527;28;20140;-74
2023/05/22 10:56:33;;;;;;;52.00;48.47;;;25.00;99.90;;;;;;4957131;28;20057;-75
2023/05/22 10:59:06;;;;;;;52.10;48.50;;;24.90;99.90;;;;;;4959835;28;20041;-75
2023/05/22 11:01:36;;;;;;;51.88;48.05;;;25.20;99.90;;;;;;4970812;28;22145;-73
2023/05/22 11:04:17;;;;;;;49.50;46.25;;;25.20;99.90;;;;;;4941672;28;20034;-75
2023/05/22 11:07:07;;;;;;;51.33;48.13;;;25.10;99.90;;;;;;4969455;28;20031;-75
2023/05/22 11:09:44;;;;;;;49.95;46.55;;;25.30;99.90;;;;;;4957540;28;20640;-74
2023/05/22 11:12:18;;;;;;;49.85;46.70;;;25.30;99.90;;;;;;4984783;28;20122;-76
2023/05/22 11:15:02;;;;;;;47.58;44.50;;;25.40;99.90;;;;;;4952084;28;20543;-73
2023/05/22 11:17:29;;;;;;;51.38;47.83;;;25.60;99.90;;;;;;4974266;28;20054;-76
2023/05/22 11:19:59;;;;;;;50.80;47.25;;;25.70;99.90;;;;;;4952691;28;20071;-76
2023/05/22 11:22:38;;;;;;;52.58;49.22;;;26.00;99.90;;;;;;4959084;28;20105;-75
2023/05/22 11:25:10;;;;;;;56.25;52.55;;;26.00;99.90;;;;;;4973782;28;20039;-76
2023/05/22 11:27:39;;;;;;;53.90;50.33;;;26.20;99.90;;;;;;4939769;28;20038;-75
2023/05/22 11:30:08;;;;;;;53.97;50.33;;;26.40;99.90;;;;;;4975936;28;20046;-76
2023/05/22 11:32:39;;;;;;;54.88;51.38;;;26.60;99.90;;;;;;4951421;28;20058;-75
2023/05/22 11:35:09;;;;;;;55.42;51.92;;;26.70;99.90;;;;;;4979842;28;20053;-75
2023/05/22 11:37:40;;;;;;;56.05;52.53;;;26.90;99.90;;;;;;4971471;28;20108;-73
2023/05/22 11:40:08;;;;;;;54.20;50.80;;;26.40;99.90;;;;;;4953551;28;20047;-73
2023/05/22 11:42:36;;;;;;;55.08;51.58;;;26.70;99.90;;;;;;4967096;28;20050;-75
2023/05/22 11:45:04;;;;;;;54.92;51.40;;;27.10;99.90;;;;;;4972286;28;20301;-76
2023/05/22 11:47:31;;;;;;;57.92;54.30;;;27.20;99.90;;;;;;4976542;28;20046;-74
2023/05/22 11:50:01;;;;;;;55.75;52.13;;;27.40;99.90;;;;;;4970308;28;20031;-75
2023/05/22 11:52:32;;;;;;;50.80;47.70;;;27.50;99.90;;;;;;4970716;28;20085;-73
2023/05/22 11:54:59;;;;;;;54.03;50.50;;;27.50;99.90;;;;;;4971547;28;20523;-76
2023/05/22 11:57:27;;;;;;;56.67;53.17;;;27.60;99.90;;;;;;4972899;28;20073;-74
2023/05/22 11:59:53;;;;;;;54.20;50.70;;;27.70;99.90;;;;;;4953153;28;20476;-76
2023/05/22 12:02:20;;;;;;;57.95;54.25;;;27.40;99.90;;;;;;4969665;28;20039;-75
2023/05/22 12:04:52;;;;;;;57.35;53.60;;;27.20;99.90;;;;;;4970309;28;20110;-75
2023/05/22 12:07:20;;;;;;;58.03;54.53;;;27.20;99.90;;;;;;4970603;28;20050;-74
2023/05/22 12:09:47;;;;;;;60.97;57.17;;;27.20;99.90;;;;;;4928354;28;22755;-73
2023/05/22 12:12:15;;;;;;;59.80;55.88;;;27.40;99.90;;;;;;4980172;28;20129;-74
2023/05/22 12:14:45;;;;;;;57.47;53.97;;;27.50;99.90;;;;;;4965348;28;20276;-74
2023/05/22 12:17:13;;;;;;;58.55;55.00;;;27.60;99.90;;;;;;4949494;28;20042;-77
2023/05/22 12:19:41;;;;;;;58.70;54.92;;;27.60;99.90;;;;;;4971657;28;20607;-75
2023/05/22 12:22:09;;;;;;;56.95;53.35;;;27.80;99.90;;;;;;4977952;28;20034;-76
2023/05/22 12:24:40;;;;;;;58.08;54.47;;;27.90;99.90;;;;;;4974802;28;20417;-77
2023/05/22 12:27:11;;;;;;;56.42;52.65;;;28.10;99.90;;;;;;4965202;28;20042;-77
2023/05/22 12:29:38;;;;;;;54.50;51.10;;;28.40;99.90;;;;;;4969975;28;21296;-75
2023/05/22 12:32:11;;;;;;;57.08;53.38;;;28.60;99.90;;;;;;4965677;28;20041;-76
2023/05/22 12:34:45;;;;;;;55.75;52.25;;;28.10;99.90;;;;;;4964634;28;20062;-76
2023/05/22 12:37:23;;;;;;;;;;;28.10;99.90;;;;;;4971279;28;20078;-76
2023/05/22 12:39:58;;;;;;;58.42;54.65;;;28.30;99.90;;;;;;4969679;28;19929;-74
2023/05/22 12:42:25;;;;;;;59.55;55.65;;;28.60;99.90;;;;;;4966734;28;20102;-76